createdAt,value
2018-12-22T00:01:13.311Z,25.43
2018-12-22T00:03:42.175Z,24.07
2018-12-22T00:06:11.042Z,24.30
2018-12-22T00:08:39.565Z,32.83
2018-12-22T00:11:08.199Z,23.80
2018-12-22T00:13:36.723Z,24.18
2018-12-22T00:16:04.080Z,25.17
2018-12-22T00:18:32.337Z,24.18
2018-12-22T00:21:00.822Z,25.08
2018-12-22T00:23:29.184Z,30.60
2018-12-22T00:25:57.718Z,22.55
2018-12-22T00:28:26.054Z,21.50
2018-12-22T00:30:54.431Z,25.10
2018-12-22T00:33:22.780Z,24.00
2018-12-22T00:35:51.441Z,23.85
2018-12-22T00:38:20.742Z,26.80
2018-12-22T00:40:49.064Z,25.70
2018-12-22T00:43:17.507Z,23.27
2018-12-22T00:45:45.745Z,22.17
2018-12-22T00:48:14.232Z,30.43
2018-12-22T00:50:43.245Z,25.10
2018-12-22T00:53:11.630Z,24.40
2018-12-22T00:55:39.990Z,26.20
2018-12-22T00:58:08.382Z,26.23
2018-12-22T01:00:36.763Z,23.98
2018-12-22T01:03:05.270Z,17.40
2018-12-22T01:05:33.521Z,23.10
2018-12-22T01:08:01.918Z,23.73
2018-12-22T01:10:31.544Z,28.10
2018-12-22T01:13:00.161Z,20.77
2018-12-22T01:15:28.557Z,26.55
2018-12-22T01:17:56.999Z,28.83
2018-12-22T01:20:26.037Z,28.77
2018-12-22T01:22:54.569Z,27.42
2018-12-22T01:25:22.869Z,29.60
2018-12-22T01:27:51.270Z,22.75
2018-12-22T01:30:19.834Z,26.10
2018-12-22T01:32:48.796Z,27.22
2018-12-22T01:35:17.308Z,28.65
2018-12-22T01:37:45.810Z,24.75
2018-12-22T01:40:14.462Z,33.73
2018-12-22T01:42:41.691Z,28.55
2018-12-22T01:45:10.270Z,27.67
2018-12-22T01:47:38.673Z,20.05
2018-12-22T01:50:07.351Z,31.90
2018-12-22T01:52:35.792Z,20.80
2018-12-22T01:55:04.878Z,32.03
2018-12-22T01:57:33.288Z,29.15
2018-12-22T02:00:01.670Z,30.72
2018-12-22T02:02:30.046Z,32.73
2018-12-22T02:04:58.397Z,31.82
2018-12-22T02:07:26.823Z,23.95
2018-12-22T02:09:55.170Z,21.40
2018-12-22T02:12:23.506Z,26.48
2018-12-22T02:14:51.874Z,22.13
2018-12-22T02:17:20.390Z,23.35
2018-12-22T02:19:48.917Z,17.27
2018-12-22T02:22:17.257Z,18.15
2018-12-22T02:24:45.746Z,19.45
2018-12-22T02:27:14.108Z,19.70
2018-12-22T02:29:42.473Z,20.62
2018-12-22T02:32:10.843Z,28.30
2018-12-22T02:34:39.125Z,25.97
2018-12-22T02:37:07.830Z,33.58
2018-12-22T02:39:36.243Z,24.43
2018-12-22T02:42:04.627Z,22.32
2018-12-22T02:44:32.928Z,21.87
2018-12-22T02:47:01.516Z,24.37
2018-12-22T02:49:33.519Z,24.92
2018-12-22T02:52:02.156Z,32.15
2018-12-22T02:54:30.662Z,20.27
2018-12-22T02:56:59.042Z,16.57
2018-12-22T02:59:27.467Z,21.07
2018-12-22T03:01:55.752Z,17.52
2018-12-22T03:04:24.143Z,23.90
2018-12-22T03:06:52.854Z,17.20
2018-12-22T03:09:21.235Z,19.85
2018-12-22T03:11:49.631Z,15.48
2018-12-22T03:14:18.034Z,20.12
2018-12-22T03:16:46.571Z,21.62
2018-12-22T03:19:15.062Z,17.27
2018-12-22T03:21:44.178Z,16.07
2018-12-22T03:24:12.510Z,22.95
2018-12-22T03:26:41.126Z,14.15
2018-12-22T03:29:15.472Z,21.55
2018-12-22T03:31:40.087Z,17.52
2018-12-22T03:34:08.574Z,21.80
2018-12-22T03:36:37.437Z,21.12
2018-12-22T03:39:07.253Z,23.05
2018-12-22T03:41:35.745Z,19.23
2018-12-22T03:44:04.173Z,26.82
2018-12-22T03:46:32.665Z,18.73
2018-12-22T03:49:01.062Z,23.32
2018-12-22T03:51:29.588Z,24.82
2018-12-22T03:53:57.968Z,27.17
2018-12-22T03:56:26.539Z,18.80
2018-12-22T03:58:55.332Z,24.32
2018-12-22T04:01:24.306Z,18.48
2018-12-22T04:03:51.587Z,14.90
2018-12-22T04:06:20.241Z,20.82
2018-12-22T04:08:48.900Z,23.85
2018-12-22T04:11:17.046Z,15.90
2018-12-22T04:13:45.524Z,23.57
2018-12-22T04:16:13.934Z,21.25
2018-12-22T04:18:42.314Z,20.25
2018-12-22T04:21:10.806Z,28.92
2018-12-22T04:23:39.234Z,18.82
2018-12-22T04:26:07.867Z,13.53
2018-12-22T04:28:36.225Z,22.65
2018-12-22T04:31:04.981Z,13.98
2018-12-22T04:33:32.425Z,15.88
2018-12-22T04:36:00.825Z,15.45
2018-12-22T04:38:31.148Z,10.80
2018-12-22T04:40:58.683Z,13.62
2018-12-22T04:43:26.198Z,13.65
2018-12-22T04:45:54.722Z,9.63
2018-12-22T04:48:23.079Z,9.63
2018-12-22T04:50:51.481Z,12.95
2018-12-22T04:53:19.935Z,9.13
2018-12-22T04:55:48.372Z,11.83
2018-12-22T04:58:16.669Z,12.53
2018-12-22T05:00:45.234Z,7.25
2018-12-22T05:03:13.752Z,10.10
2018-12-22T05:05:42.049Z,6.92
2018-12-22T05:08:10.374Z,13.35
2018-12-22T05:10:39.913Z,11.55
2018-12-22T05:13:07.164Z,9.45
2018-12-22T05:15:35.709Z,11.78
2018-12-22T05:18:04.600Z,13.80
2018-12-22T05:20:32.889Z,16.10
2018-12-22T05:23:01.333Z,5.42
2018-12-22T05:25:29.818Z,7.08
2018-12-22T05:27:58.205Z,8.45
2018-12-22T05:30:27.926Z,8.85
2018-12-22T05:32:55.448Z,6.05
2018-12-22T05:35:23.873Z,7.97
2018-12-22T05:37:52.489Z,8.25
2018-12-22T05:40:22.289Z,5.58
2018-12-22T05:42:49.576Z,8.85
2018-12-22T05:45:17.983Z,6.33
2018-12-22T05:47:46.338Z,6.35
2018-12-22T05:50:14.714Z,7.30
2018-12-22T05:52:43.107Z,8.65
2018-12-22T05:55:11.465Z,10.58
2018-12-22T05:57:38.816Z,6.75
2018-12-22T06:00:08.093Z,5.22
2018-12-22T06:02:36.657Z,8.48
2018-12-22T06:05:07.164Z,5.53
2018-12-22T06:07:35.536Z,5.20
2018-12-22T06:10:04.244Z,10.10
2018-12-22T06:12:32.830Z,7.97
2018-12-22T06:15:01.723Z,7.92
2018-12-22T06:17:29.288Z,9.18
2018-12-22T06:19:57.717Z,13.00
2018-12-22T06:22:26.092Z,5.78
2018-12-22T06:24:54.469Z,8.80
2018-12-22T06:27:22.849Z,11.60
2018-12-22T06:29:51.155Z,8.68
2018-12-22T06:32:19.567Z,5.40
2018-12-22T06:34:48.234Z,10.45
2018-12-22T06:37:16.607Z,11.00
2018-12-22T06:39:45.001Z,6.50
2018-12-22T06:42:13.382Z,6.20
2018-12-22T06:44:41.694Z,6.17
2018-12-22T06:47:10.130Z,7.08
2018-12-22T06:49:38.425Z,12.78
2018-12-22T06:52:06.829Z,6.70
2018-12-22T06:54:35.205Z,7.47
2018-12-22T06:57:03.702Z,7.97
2018-12-22T06:59:34.153Z,11.35
2018-12-22T07:02:02.649Z,7.60
2018-12-22T07:04:30.929Z,5.47
2018-12-22T07:06:59.376Z,6.33
2018-12-22T07:09:28.917Z,5.92
2018-12-22T07:11:57.449Z,4.45
2018-12-22T07:14:25.845Z,8.88
2018-12-22T07:16:54.480Z,7.58
2018-12-22T07:19:23.070Z,8.28
2018-12-22T07:21:51.359Z,6.95
2018-12-22T07:24:19.862Z,7.03
2018-12-22T07:26:48.848Z,8.73
2018-12-22T07:29:17.250Z,6.08
2018-12-22T07:31:45.639Z,7.03
2018-12-22T07:34:14.005Z,14.60
2018-12-22T07:36:42.416Z,8.73
2018-12-22T07:39:10.705Z,5.60
2018-12-22T07:41:39.195Z,7.78
2018-12-22T07:44:07.773Z,5.37
2018-12-22T07:46:36.061Z,8.00
2018-12-22T07:49:04.457Z,5.42
2018-12-22T07:51:32.866Z,5.30
2018-12-22T07:54:01.292Z,7.92
2018-12-22T07:56:29.689Z,5.62
2018-12-22T07:58:58.078Z,6.75
2018-12-22T08:01:25.382Z,7.10
2018-12-22T08:03:54.065Z,5.40
2018-12-22T08:06:22.573Z,6.20
2018-12-22T08:08:51.074Z,4.17
2018-12-22T08:11:19.703Z,4.37
2018-12-22T08:13:48.223Z,3.65
2018-12-22T08:16:16.730Z,8.05
2018-12-22T08:18:44.037Z,4.30
2018-12-22T08:21:12.533Z,6.58
2018-12-22T08:23:41.117Z,4.03
2018-12-22T08:26:09.593Z,3.67
2018-12-22T08:28:38.113Z,4.00
2018-12-22T08:31:06.669Z,2.58
2018-12-22T08:33:35.113Z,2.80
2018-12-22T08:36:03.719Z,4.50
2018-12-22T08:38:31.007Z,6.10
2018-12-22T08:40:59.415Z,3.62
2018-12-22T08:43:28.005Z,2.55
2018-12-22T08:45:56.611Z,2.10
2018-12-22T08:48:25.109Z,3.47
2018-12-22T08:50:53.897Z,7.00
2018-12-22T08:53:22.392Z,5.42
2018-12-22T08:55:50.827Z,4.30
2018-12-22T08:58:19.312Z,9.43
2018-12-22T09:00:52.094Z,4.55
2018-12-22T09:03:17.216Z,5.90
2018-12-22T09:05:46.507Z,3.12
2018-12-22T09:08:14.953Z,6.00
2018-12-22T09:10:43.455Z,5.58
2018-12-22T09:13:20.697Z,5.95
2018-12-22T09:15:41.582Z,5.28
2018-12-22T09:18:08.887Z,6.72
2018-12-22T09:20:37.294Z,6.95
2018-12-22T09:23:05.749Z,3.33
2018-12-22T09:25:34.133Z,4.45
2018-12-22T09:28:02.674Z,5.35
2018-12-22T09:30:31.222Z,3.30
2018-12-22T09:32:59.646Z,4.67
2018-12-22T09:35:28.469Z,7.40
2018-12-22T09:37:56.168Z,5.83
2018-12-22T09:40:24.701Z,8.13
2018-12-22T09:42:53.298Z,5.00
2018-12-22T09:45:21.705Z,7.15
2018-12-22T09:47:50.345Z,9.00
2018-12-22T09:50:18.738Z,8.30
2018-12-22T09:52:47.083Z,3.85
2018-12-22T09:55:15.470Z,3.65
2018-12-22T09:57:43.980Z,7.62
2018-12-22T10:00:12.973Z,5.05
2018-12-22T10:02:41.401Z,8.55
2018-12-22T10:05:10.025Z,9.53
2018-12-22T10:07:38.689Z,4.40
2018-12-22T10:10:11.844Z,7.45
2018-12-22T10:12:40.457Z,6.12
2018-12-22T10:15:09.144Z,4.55
2018-12-22T10:17:37.825Z,6.17
2018-12-22T10:20:07.487Z,5.62
2018-12-22T10:22:35.920Z,6.80
2018-12-22T10:25:07.605Z,7.58
2018-12-22T10:27:36.102Z,7.08
2018-12-22T10:30:07.846Z,10.98
2018-12-22T10:32:36.418Z,6.55
2018-12-22T10:35:08.072Z,8.80
2018-12-22T10:37:36.470Z,10.78
2018-12-22T10:40:05.514Z,6.87
2018-12-22T10:42:32.794Z,5.10
2018-12-22T10:45:01.153Z,5.53
2018-12-22T10:47:29.560Z,9.85
2018-12-22T10:49:57.978Z,9.85
2018-12-22T10:52:26.373Z,4.97
2018-12-22T10:54:54.849Z,5.75
2018-12-22T10:57:23.257Z,7.83
2018-12-22T10:59:51.641Z,5.17
2018-12-22T11:02:20.221Z,5.37
2018-12-22T11:04:48.633Z,9.75
2018-12-22T11:07:17.226Z,5.50
2018-12-22T11:09:45.602Z,6.47
2018-12-22T11:12:19.198Z,9.95
2018-12-22T11:14:47.797Z,5.05
2018-12-22T11:17:16.289Z,4.72
2018-12-22T11:19:46.356Z,9.55
2018-12-22T11:22:25.016Z,7.45
2018-12-22T11:24:53.943Z,5.00
2018-12-22T11:27:21.565Z,8.03
2018-12-22T11:29:49.694Z,6.90
2018-12-22T11:32:16.965Z,14.47
2018-12-22T11:34:44.321Z,9.50
2018-12-22T11:37:12.717Z,4.65
2018-12-22T11:39:41.142Z,6.20
2018-12-22T11:42:09.541Z,5.62
2018-12-22T11:44:37.945Z,5.55
2018-12-22T11:47:12.717Z,6.30
2018-12-22T11:49:42.679Z,11.95
2018-12-22T11:55:21.096Z,7.08
2018-12-22T11:57:48.770Z,5.53
2018-12-22T12:00:16.414Z,6.97
2018-12-22T12:02:43.685Z,7.03
2018-12-22T12:05:11.106Z,8.13
2018-12-22T12:07:38.505Z,4.50
2018-12-22T12:10:08.651Z,4.62
2018-12-22T12:12:36.053Z,6.97
2018-12-22T12:15:05.892Z,10.18
2018-12-22T12:17:41.248Z,3.33
2018-12-22T12:20:08.516Z,2.10
2018-12-22T12:22:35.781Z,5.22
2018-12-22T12:25:03.405Z,2.15
2018-12-22T12:27:30.721Z,3.95
2018-12-22T12:29:57.998Z,3.50
2018-12-22T12:32:25.261Z,5.15
2018-12-22T12:34:53.025Z,3.10
2018-12-22T12:37:25.797Z,3.25
2018-12-22T12:39:53.358Z,3.02
2018-12-22T12:42:20.985Z,2.30
2018-12-22T12:44:48.265Z,3.60
2018-12-22T12:47:15.733Z,3.10
2018-12-22T12:49:44.905Z,1.57
2018-12-22T12:52:12.334Z,4.25
2018-12-22T12:54:39.950Z,6.08
2018-12-22T12:57:07.332Z,4.78
2018-12-22T12:59:34.639Z,2.27
2018-12-22T13:02:08.750Z,2.55
2018-12-22T13:04:35.992Z,2.67
2018-12-22T13:07:03.508Z,3.50
2018-12-22T13:09:30.814Z,2.75
2018-12-22T13:12:10.027Z,2.80
2018-12-22T13:14:37.302Z,4.15
2018-12-22T13:17:04.676Z,3.22
2018-12-22T13:19:32.001Z,5.87
2018-12-22T13:21:59.406Z,5.70
2018-12-22T13:24:26.694Z,3.45
2018-12-22T13:26:59.730Z,3.55
2018-12-22T13:29:28.241Z,3.87
2018-12-22T13:31:56.641Z,5.70
2018-12-22T13:34:25.051Z,4.53
2018-12-22T13:36:52.349Z,6.00
2018-12-22T13:39:24.836Z,7.42
2018-12-22T13:41:54.013Z,4.45
2018-12-22T13:44:22.585Z,7.70
2018-12-22T13:46:51.010Z,7.15
2018-12-22T13:49:19.467Z,8.60
2018-12-22T13:51:47.833Z,8.85
2018-12-22T13:54:20.009Z,6.58
2018-12-22T13:56:48.718Z,5.45
2018-12-22T13:59:17.154Z,9.25
2018-12-22T14:01:50.589Z,9.78
2018-12-22T14:04:19.185Z,8.20
2018-12-22T14:06:48.310Z,7.10
2018-12-22T14:09:16.750Z,7.70
2018-12-22T14:11:45.148Z,5.78
2018-12-22T14:14:19.519Z,4.10
2018-12-22T14:16:53.838Z,5.37
2018-12-22T14:19:22.422Z,5.95
2018-12-22T14:21:51.233Z,5.75
2018-12-22T14:24:54.553Z,7.20
2018-12-22T14:27:22.473Z,5.00
2018-12-22T14:29:49.833Z,6.42
2018-12-22T14:32:17.096Z,8.08
2018-12-22T14:34:51.882Z,7.85
2018-12-22T14:37:19.232Z,5.95
2018-12-22T14:39:47.623Z,6.35
2018-12-22T14:42:16.135Z,3.30
2018-12-22T14:44:44.609Z,3.42
2018-12-22T14:47:12.983Z,5.70
2018-12-22T14:49:41.405Z,2.80
2018-12-22T14:52:09.941Z,5.53
2018-12-22T14:54:38.328Z,2.95
2018-12-22T14:57:06.741Z,4.87
2018-12-22T14:59:36.068Z,6.20
2018-12-22T15:02:04.668Z,6.17
2018-12-22T15:04:33.951Z,6.28
2018-12-22T15:07:03.936Z,3.72
2018-12-22T15:09:32.603Z,8.98
2018-12-22T15:12:00.933Z,7.37
2018-12-22T15:14:29.529Z,8.68
2018-12-22T15:16:58.018Z,10.48
2018-12-22T15:19:26.361Z,5.67
2018-12-22T15:21:57.489Z,8.78
2018-12-22T15:24:26.001Z,6.40
2018-12-22T15:26:54.633Z,6.78
2018-12-22T15:29:23.037Z,4.92
2018-12-22T15:31:51.513Z,5.58
2018-12-22T15:34:20.021Z,8.60
2018-12-22T15:36:49.942Z,9.58
2018-12-22T15:39:18.346Z,8.10
2018-12-22T15:41:46.921Z,15.28
2018-12-22T15:44:15.421Z,8.63
2018-12-22T15:46:43.821Z,6.83
2018-12-22T15:49:13.310Z,9.80
2018-12-22T15:51:42.442Z,4.53
2018-12-22T15:54:10.865Z,6.12
2018-12-22T15:56:40.177Z,4.78
2018-12-22T15:59:08.581Z,4.20
2018-12-22T16:01:37.074Z,3.50
2018-12-22T16:04:05.434Z,8.65
2018-12-22T16:09:06.754Z,3.83
2018-12-22T16:11:35.017Z,6.78
2018-12-22T16:14:04.221Z,3.70
2018-12-22T16:16:32.810Z,9.10
2018-12-22T16:19:01.293Z,6.17
2018-12-22T16:21:29.749Z,4.67
2018-12-22T16:23:58.840Z,4.95
2018-12-22T16:26:27.370Z,6.45
2018-12-22T16:29:05.526Z,9.20
2018-12-22T16:31:33.900Z,9.10
2018-12-22T16:34:02.330Z,6.95
2018-12-22T16:36:30.749Z,7.37
2018-12-22T16:38:59.263Z,10.68
2018-12-22T16:41:27.642Z,8.05
2018-12-22T16:43:56.956Z,11.28
2018-12-22T16:46:25.296Z,5.85
2018-12-22T16:48:54.116Z,13.75
2018-12-22T16:51:22.731Z,8.50
2018-12-22T16:53:51.109Z,9.35
2018-12-22T16:56:19.602Z,8.00
2018-12-22T16:58:50.229Z,10.65
2018-12-22T17:01:33.073Z,8.18
2018-12-22T17:04:01.584Z,7.97
2018-12-22T17:06:30.661Z,7.90
2018-12-22T17:08:58.932Z,13.18
2018-12-22T17:11:27.265Z,15.75
2018-12-22T17:13:55.654Z,11.88
2018-12-22T17:16:24.208Z,12.40
2018-12-22T17:18:53.176Z,14.47
2018-12-22T17:21:25.292Z,11.15
2018-12-22T17:23:58.113Z,14.90
2018-12-22T17:26:28.636Z,15.10
2018-12-22T17:28:57.003Z,15.78
2018-12-22T17:31:25.408Z,13.08
2018-12-22T17:33:54.222Z,11.10
2018-12-22T17:36:22.650Z,7.90
2018-12-22T17:38:51.126Z,10.03
2018-12-22T17:41:19.509Z,13.88
2018-12-22T17:43:48.178Z,9.78
2018-12-22T17:46:16.929Z,14.07
2018-12-22T17:48:45.322Z,9.85
2018-12-22T17:51:13.786Z,9.10
2018-12-22T17:53:42.296Z,16.60
2018-12-22T17:56:10.605Z,10.82
2018-12-22T17:58:39.035Z,7.95
2018-12-22T18:01:12.142Z,7.20
2018-12-22T18:03:40.763Z,9.35
2018-12-22T18:06:14.057Z,11.12
2018-12-22T18:08:42.537Z,7.12
2018-12-22T18:11:11.108Z,10.72
2018-12-22T18:13:39.413Z,12.60
2018-12-22T18:16:07.906Z,13.03
2018-12-22T18:18:36.423Z,17.98
2018-12-22T18:21:04.761Z,14.33
2018-12-22T18:23:33.220Z,13.25
2018-12-22T18:26:01.598Z,14.63
2018-12-22T18:28:30.106Z,15.68
2018-12-22T18:30:58.563Z,16.62
2018-12-22T18:33:26.939Z,13.45
2018-12-22T18:35:55.289Z,12.10
2018-12-22T18:38:23.937Z,15.75
2018-12-22T18:40:57.010Z,15.75
2018-12-22T18:43:24.358Z,10.08
2018-12-22T18:45:51.690Z,9.75
2018-12-22T18:48:19.133Z,12.30
2018-12-22T18:50:47.832Z,12.93
2018-12-22T18:53:16.374Z,14.58
2018-12-22T18:55:44.798Z,14.45
2018-12-22T18:58:13.333Z,17.20
2018-12-22T19:00:41.951Z,14.07
2018-12-22T19:03:15.121Z,16.12
2018-12-22T19:05:43.325Z,18.90
2018-12-22T19:08:14.840Z,15.18
2018-12-22T19:13:27.070Z,17.07
2018-12-22T19:15:55.709Z,12.37
2018-12-22T19:18:24.214Z,15.90
2018-12-22T19:20:53.792Z,13.15
2018-12-22T19:23:24.000Z,9.38
2018-12-22T19:25:53.306Z,14.15
2018-12-22T19:28:22.882Z,25.75
2018-12-22T19:30:50.402Z,15.63
2018-12-22T19:33:18.846Z,13.68
2018-12-22T19:35:46.257Z,11.38
2018-12-22T19:38:17.078Z,20.20
2018-12-22T19:40:45.914Z,11.83
2018-12-22T19:43:14.475Z,13.90
2018-12-22T19:45:42.999Z,16.42
2018-12-22T19:48:11.463Z,15.95
2018-12-22T19:50:40.042Z,18.30
2018-12-22T19:53:09.444Z,15.38
2018-12-22T19:55:36.956Z,18.85
2018-12-22T19:58:05.694Z,17.23
2018-12-22T20:00:33.193Z,11.15
2018-12-22T20:03:01.710Z,19.35
2018-12-22T20:05:31.131Z,19.60
2018-12-22T20:07:58.514Z,14.68
2018-12-22T20:10:26.934Z,18.65
2018-12-22T20:12:55.547Z,17.60
2018-12-22T20:15:24.030Z,16.20
2018-12-22T20:17:52.531Z,15.55
2018-12-22T20:20:21.567Z,22.35
2018-12-22T20:22:49.112Z,12.93
2018-12-22T20:25:17.591Z,19.25
2018-12-22T20:27:46.035Z,16.80
2018-12-22T20:30:14.807Z,15.90
2018-12-22T20:32:43.464Z,16.57
2018-12-22T20:35:10.936Z,16.32
2018-12-22T20:37:39.381Z,20.15
2018-12-22T20:40:07.962Z,16.62
2018-12-22T20:42:36.390Z,26.27
2018-12-22T20:45:05.262Z,12.82
2018-12-22T20:47:33.721Z,13.98
2018-12-22T20:50:02.365Z,17.73
2018-12-22T20:52:30.860Z,19.75
2018-12-22T20:54:58.155Z,12.88
2018-12-22T20:57:26.560Z,17.98
2018-12-22T20:59:55.070Z,14.95
2018-12-22T21:02:23.601Z,17.20
2018-12-22T21:04:52.550Z,13.15
2018-12-22T21:07:21.583Z,19.65
2018-12-22T21:09:52.124Z,21.35
2018-12-22T21:12:19.581Z,22.40
2018-12-22T21:14:46.948Z,15.20
2018-12-22T21:17:14.400Z,12.58
2018-12-22T21:19:42.914Z,26.50
2018-12-22T21:22:11.334Z,18.20
2018-12-22T21:24:39.834Z,17.73
2018-12-22T21:27:08.221Z,13.30
2018-12-22T21:29:36.917Z,15.15
2018-12-22T21:32:05.388Z,17.30
2018-12-22T21:34:33.993Z,15.63
2018-12-22T21:37:02.527Z,10.40
2018-12-22T21:39:30.957Z,15.78
2018-12-22T21:41:59.398Z,10.32
2018-12-22T21:44:28.050Z,14.90
2018-12-22T21:46:56.517Z,9.53
2018-12-22T21:49:24.940Z,9.63
2018-12-22T21:51:53.706Z,12.45
2018-12-22T21:54:21.677Z,13.05
2018-12-22T21:56:50.682Z,13.60
2018-12-22T21:59:19.009Z,9.55
2018-12-22T22:01:47.408Z,16.90
2018-12-22T22:04:15.918Z,20.62
2018-12-22T22:06:44.256Z,14.33
2018-12-22T22:09:12.898Z,17.50
2018-12-22T22:11:41.273Z,14.07
2018-12-22T22:14:08.974Z,16.07
2018-12-22T22:16:37.573Z,22.20
2018-12-22T22:19:06.022Z,15.72
2018-12-22T22:21:34.411Z,11.75
2018-12-22T22:24:02.887Z,16.48
2018-12-22T22:26:31.437Z,11.70
2018-12-22T22:28:59.923Z,11.60
2018-12-22T22:31:28.294Z,11.28
2018-12-22T22:33:56.822Z,9.25
2018-12-22T22:36:25.346Z,6.25
2018-12-22T22:38:54.217Z,11.70
2018-12-22T22:41:22.827Z,10.35
2018-12-22T22:43:51.265Z,9.90
2018-12-22T22:46:19.641Z,9.45
2018-12-22T22:48:48.054Z,8.45
2018-12-22T22:51:16.526Z,14.65
2018-12-22T22:53:44.908Z,15.48
2018-12-22T22:56:13.391Z,12.90
2018-12-22T22:58:41.950Z,16.00
2018-12-22T23:01:10.579Z,14.45
2018-12-22T23:03:39.256Z,18.90
2018-12-22T23:06:07.856Z,20.23
2018-12-22T23:08:36.469Z,13.25
2018-12-22T23:11:04.922Z,19.45
2018-12-22T23:13:33.524Z,17.40
2018-12-22T23:16:02.120Z,16.48
2018-12-22T23:18:30.625Z,20.20
2018-12-22T23:20:59.012Z,19.00
2018-12-22T23:23:27.450Z,17.05
2018-12-22T23:25:55.966Z,17.90
2018-12-22T23:28:24.443Z,15.60
2018-12-22T23:30:52.799Z,25.57
2018-12-22T23:33:21.340Z,19.70
2018-12-22T23:35:50.380Z,20.12
2018-12-22T23:38:18.676Z,20.20
2018-12-22T23:40:46.986Z,16.55
2018-12-22T23:43:15.358Z,17.55
2018-12-22T23:45:43.986Z,16.85
2018-12-22T23:48:12.422Z,19.45
2018-12-22T23:50:40.784Z,24.92
2018-12-22T23:53:09.226Z,18.60
2018-12-22T23:55:37.642Z,13.28
2018-12-22T23:58:05.863Z,19.73
